createdAt,value
2018-10-16T00:02:03.808Z,32.83
2018-10-16T00:04:37.702Z,33.60
2018-10-16T00:07:10.388Z,33.13
2018-10-16T00:09:43.192Z,30.67
2018-10-16T00:12:16.409Z,34.83
2018-10-16T00:14:49.991Z,28.87
2018-10-16T00:17:28.720Z,31.47
2018-10-16T00:20:02.167Z,28.47
2018-10-16T00:22:36.884Z,31.70
2018-10-16T00:25:11.622Z,34.93
2018-10-16T00:27:44.134Z,37.13
2018-10-16T00:30:17.943Z,34.87
2018-10-16T00:32:50.760Z,35.13
2018-10-16T00:35:25.164Z,37.47
2018-10-16T00:38:03.915Z,36.07
2018-10-16T00:40:37.282Z,33.40
2018-10-16T00:43:11.272Z,32.70
2018-10-16T00:45:44.602Z,36.67
2018-10-16T00:48:17.291Z,39.53
2018-10-16T00:50:56.900Z,34.30
2018-10-16T00:53:29.460Z,37.37
2018-10-16T00:56:08.901Z,36.90
2018-10-16T00:58:44.740Z,35.40
2018-10-16T01:01:21.812Z,36.43
2018-10-16T01:03:55.643Z,36.97
2018-10-16T01:06:30.212Z,35.90
2018-10-16T01:09:02.883Z,34.63
2018-10-16T01:11:36.857Z,38.67
2018-10-16T01:14:11.285Z,30.87
2018-10-16T01:16:46.465Z,30.17
2018-10-16T01:30:33.580Z,13.53
2018-10-16T01:33:07.399Z,11.33
2018-10-16T01:35:46.568Z,12.30
2018-10-16T01:38:20.349Z,10.60
2018-10-16T01:40:53.185Z,10.43
2018-10-16T01:43:26.249Z,14.40
2018-10-16T01:45:59.307Z,13.77
2018-10-16T01:48:38.900Z,28.87
2018-10-16T01:51:11.977Z,14.83
2018-10-16T01:53:57.206Z,13.67
2018-10-16T01:56:34.036Z,12.07
2018-10-16T01:59:07.543Z,12.33
2018-10-16T02:01:41.277Z,14.90
2018-10-16T02:04:14.181Z,15.00
2018-10-16T02:06:48.105Z,14.80
2018-10-16T02:09:20.916Z,14.83
2018-10-16T02:11:53.893Z,15.03
2018-10-16T02:14:27.896Z,12.90
2018-10-16T02:17:00.633Z,16.87
2018-10-16T02:19:44.003Z,13.53
2018-10-16T02:22:17.195Z,15.90
2018-10-16T02:24:50.090Z,16.07
2018-10-16T02:27:23.505Z,14.37
2018-10-16T02:29:58.548Z,15.33
2018-10-16T02:32:32.200Z,12.03
2018-10-16T02:35:05.213Z,9.83
2018-10-16T02:37:38.174Z,10.00
2018-10-16T02:40:12.061Z,8.37
2018-10-16T02:42:45.057Z,9.70
2018-10-16T02:45:17.761Z,11.27
2018-10-16T02:47:50.916Z,9.50
2018-10-16T02:50:23.599Z,9.20
2018-10-16T02:52:56.505Z,8.37
2018-10-16T02:55:30.337Z,11.27
2018-10-16T02:58:03.512Z,10.70
2018-10-16T03:00:36.725Z,7.60
2018-10-16T03:03:11.707Z,8.70
2018-10-16T03:05:44.561Z,7.83
2018-10-16T03:08:23.421Z,9.13
2018-10-16T03:10:56.174Z,9.55
2018-10-16T03:13:29.078Z,7.80
2018-10-16T03:16:01.943Z,9.03
2018-10-16T03:18:35.672Z,6.73
2018-10-16T03:21:08.813Z,7.37
2018-10-16T03:23:41.564Z,8.23
2018-10-16T03:26:14.441Z,10.80
2018-10-16T03:28:48.101Z,9.00
2018-10-16T03:31:26.336Z,10.00
2018-10-16T03:33:59.283Z,7.93
2018-10-16T03:36:32.345Z,8.47
2018-10-16T03:39:05.514Z,9.90
2018-10-16T03:41:44.052Z,10.80
2018-10-16T03:44:24.938Z,8.83
2018-10-16T03:46:58.481Z,10.23
2018-10-16T03:49:32.108Z,9.37
2018-10-16T03:52:05.625Z,9.60
2018-10-16T03:54:41.455Z,9.73
2018-10-16T03:57:16.236Z,8.87
2018-10-16T03:59:49.548Z,10.07
2018-10-16T04:02:22.760Z,8.80
2018-10-16T04:04:56.016Z,8.10
2018-10-16T04:07:31.401Z,11.30
2018-10-16T04:10:05.375Z,12.43
2018-10-16T04:12:38.210Z,11.47
2018-10-16T04:15:12.948Z,11.40
2018-10-16T04:17:47.469Z,17.50
2018-10-16T04:20:24.570Z,11.25
2018-10-16T04:22:57.539Z,9.30
2018-10-16T04:25:30.802Z,9.80
2018-10-16T04:28:04.499Z,8.30
2018-10-16T04:30:37.520Z,7.57
2018-10-16T04:33:10.342Z,13.10
2018-10-16T04:35:44.801Z,8.63
2018-10-16T04:38:20.244Z,7.30
2018-10-16T04:40:55.132Z,7.23
2018-10-16T04:43:33.169Z,8.03
2018-10-16T04:46:05.972Z,7.30
2018-10-16T04:48:38.721Z,8.47
2018-10-16T04:51:12.138Z,8.90
2018-10-16T04:53:45.027Z,9.70
2018-10-16T04:56:17.669Z,10.55
2018-10-16T04:58:52.583Z,8.43
2018-10-16T05:01:28.024Z,8.37
2018-10-16T05:04:00.911Z,10.13
2018-10-16T05:06:35.088Z,9.07
2018-10-16T05:09:09.323Z,8.33
2018-10-16T05:11:47.031Z,8.47
2018-10-16T05:14:19.944Z,7.77
2018-10-16T05:16:54.545Z,8.37
2018-10-16T05:19:32.089Z,8.80
2018-10-16T05:22:05.032Z,9.17
2018-10-16T05:24:41.045Z,9.60
2018-10-16T05:27:14.517Z,8.93
2018-10-16T05:29:47.524Z,8.43
2018-10-16T05:32:20.700Z,8.40
2018-10-16T05:34:54.408Z,8.37
2018-10-16T05:37:27.181Z,8.20
2018-10-16T05:40:00.120Z,8.80
2018-10-16T05:42:33.379Z,7.77
2018-10-16T05:45:06.868Z,8.95
2018-10-16T05:47:40.211Z,8.83
2018-10-16T05:50:18.800Z,8.83
2018-10-16T05:52:53.545Z,9.33
2018-10-16T05:55:27.067Z,9.45
2018-10-16T05:57:59.880Z,7.43
2018-10-16T06:00:46.557Z,7.60
2018-10-16T06:03:19.513Z,7.27
2018-10-16T06:05:53.376Z,7.40
2018-10-16T06:08:33.711Z,8.47
2018-10-16T06:11:07.135Z,7.63
2018-10-16T06:13:39.897Z,7.33
2018-10-16T06:16:13.744Z,8.80
2018-10-16T06:18:46.765Z,7.00
2018-10-16T06:21:19.445Z,6.90
2018-10-16T06:23:52.503Z,6.70
2018-10-16T06:26:25.678Z,6.80
2018-10-16T06:28:58.503Z,7.40
2018-10-16T06:31:31.644Z,7.00
2018-10-16T06:34:09.293Z,6.10
2018-10-16T06:36:44.851Z,7.10
2018-10-16T06:39:22.505Z,6.70
2018-10-16T06:41:55.301Z,7.23
2018-10-16T06:44:29.234Z,7.50
2018-10-16T06:47:05.337Z,7.27
2018-10-16T06:49:38.289Z,6.80
2018-10-16T06:52:11.685Z,7.00
2018-10-16T06:54:47.808Z,7.07
2018-10-16T06:57:20.984Z,6.27
2018-10-16T06:59:54.005Z,7.03
2018-10-16T07:02:26.769Z,7.10
2018-10-16T07:04:59.613Z,7.50
2018-10-16T07:07:32.416Z,6.70
2018-10-16T07:10:06.056Z,6.17
2018-10-16T07:12:39.345Z,6.00
2018-10-16T07:15:12.409Z,5.23
2018-10-16T07:17:45.399Z,5.00
2018-10-16T07:20:19.112Z,8.60
2018-10-16T07:22:52.003Z,5.87
2018-10-16T07:25:25.310Z,5.40
2018-10-16T07:27:59.158Z,6.23
2018-10-16T07:30:33.094Z,5.37
2018-10-16T07:33:06.963Z,5.37
2018-10-16T07:35:40.487Z,5.67
2018-10-16T07:38:13.551Z,6.67
2018-10-16T07:40:46.804Z,6.17
2018-10-16T07:43:24.171Z,5.90
2018-10-16T07:45:57.714Z,5.87
2018-10-16T07:48:30.546Z,5.37
2018-10-16T07:51:03.804Z,5.40
2018-10-16T07:53:36.570Z,6.92
2018-10-16T07:56:09.788Z,6.00
2018-10-16T07:58:42.529Z,6.30
2018-10-16T08:01:15.194Z,6.17
2018-10-16T08:03:48.133Z,6.13
2018-10-16T08:06:22.036Z,6.10
2018-10-16T08:08:59.952Z,6.40
2018-10-16T08:11:32.903Z,6.53
2018-10-16T08:14:07.247Z,6.27
2018-10-16T08:16:40.652Z,7.00
2018-10-16T08:19:16.194Z,6.70
2018-10-16T08:21:49.654Z,6.13
2018-10-16T08:24:22.518Z,6.37
2018-10-16T08:26:55.347Z,6.80
2018-10-16T08:29:34.269Z,7.03
2018-10-16T08:32:07.561Z,6.20
2018-10-16T08:34:41.200Z,7.20
2018-10-16T08:37:15.782Z,7.63
2018-10-16T08:39:52.830Z,8.10
2018-10-16T08:43:41.075Z,16.60
2018-10-16T08:46:23.277Z,8.50
2018-10-16T08:49:06.004Z,7.67
2018-10-16T08:51:46.619Z,8.65
2018-10-16T08:54:24.167Z,7.33
2018-10-16T08:56:57.770Z,7.07
2018-10-16T08:59:31.967Z,8.90
2018-10-16T09:02:05.367Z,6.73
2018-10-16T09:04:40.179Z,7.27
2018-10-16T09:07:15.038Z,7.57
2018-10-16T09:09:54.061Z,7.83
2018-10-16T09:12:26.992Z,8.20
2018-10-16T09:14:59.975Z,7.60
2018-10-16T09:17:32.647Z,6.97
2018-10-16T09:20:05.776Z,8.17
2018-10-16T09:22:38.636Z,8.00
2018-10-16T09:25:13.178Z,12.17
2018-10-16T09:27:45.989Z,9.27
2018-10-16T09:30:18.957Z,6.30
2018-10-16T09:32:51.724Z,6.60
2018-10-16T09:35:29.773Z,5.93
2018-10-16T09:38:02.607Z,13.48
2018-10-16T09:40:35.532Z,6.37
2018-10-16T09:43:11.431Z,6.03
2018-10-16T09:45:44.626Z,6.03
2018-10-16T09:48:19.130Z,6.67
2018-10-16T09:50:53.016Z,6.80
2018-10-16T09:53:26.052Z,7.93
2018-10-16T09:56:00.075Z,7.90
2018-10-16T09:58:32.923Z,7.90
2018-10-16T10:01:11.047Z,8.60
2018-10-16T10:03:44.032Z,7.73
2018-10-16T10:06:21.664Z,8.37
2018-10-16T10:08:54.255Z,10.60
2018-10-16T10:11:27.358Z,10.83
2018-10-16T10:14:00.001Z,14.17
2018-10-16T10:16:37.892Z,9.03
2018-10-16T10:19:10.808Z,9.77
2018-10-16T10:21:43.779Z,11.70
2018-10-16T10:24:16.592Z,13.33
2018-10-16T10:26:49.348Z,12.23
2018-10-16T10:29:23.472Z,9.57
2018-10-16T10:31:56.702Z,12.90
2018-10-16T10:34:29.512Z,13.60
2018-10-16T10:37:02.504Z,16.07
2018-10-16T10:39:42.337Z,13.83
2018-10-16T10:42:15.893Z,14.60
2018-10-16T10:44:48.630Z,14.60
2018-10-16T10:47:21.935Z,12.50
2018-10-16T10:49:54.897Z,18.83
2018-10-16T10:52:28.144Z,15.37
2018-10-16T10:55:00.976Z,18.87
2018-10-16T10:57:40.251Z,13.70
2018-10-16T11:00:16.176Z,13.78
2018-10-16T11:02:50.432Z,11.30
2018-10-16T11:05:23.103Z,20.77
2018-10-16T11:07:56.877Z,10.40
2018-10-16T11:10:29.832Z,9.87
2018-10-16T11:13:02.910Z,14.73
2018-10-16T11:15:36.959Z,17.13
2018-10-16T11:18:09.936Z,30.07
2018-10-16T11:20:42.654Z,16.87
2018-10-16T11:23:20.909Z,27.17
2018-10-16T11:25:53.628Z,16.80
2018-10-16T11:28:27.069Z,17.03
2018-10-16T11:30:59.855Z,16.53
2018-10-16T11:33:32.641Z,23.87
2018-10-16T11:36:05.537Z,21.07
2018-10-16T11:38:38.264Z,13.70
2018-10-16T11:41:11.732Z,28.33
2018-10-16T11:43:44.618Z,15.43
2018-10-16T11:46:17.285Z,26.73
2018-10-16T11:48:50.547Z,23.00
2018-10-16T11:51:23.483Z,28.90
2018-10-16T11:54:01.858Z,22.53
2018-10-16T11:56:34.766Z,20.67
2018-10-16T11:59:07.983Z,21.10
2018-10-16T12:01:40.695Z,18.80
2018-10-16T12:04:13.663Z,35.37
2018-10-16T12:06:46.380Z,13.10
2018-10-16T12:09:19.659Z,12.73
2018-10-16T12:12:00.372Z,28.03
2018-10-16T12:14:37.732Z,20.60
2018-10-16T12:30:18.210Z,19.57
2018-10-16T12:33:12.590Z,132.40
2018-10-16T12:35:55.541Z,109.90
2018-10-16T12:38:29.246Z,85.97
2018-10-16T12:41:02.710Z,32.90
2018-10-16T12:43:36.600Z,50.97
2018-10-16T12:46:11.377Z,32.67
2018-10-16T12:48:45.513Z,16.57
2018-10-16T12:51:26.583Z,19.70
2018-10-16T12:54:01.756Z,16.17
2018-10-16T12:56:35.292Z,10.93
2018-10-16T12:59:08.522Z,14.03
2018-10-16T13:01:44.520Z,9.80
2018-10-16T13:04:17.545Z,9.23
2018-10-16T13:06:50.451Z,7.43
2018-10-16T13:09:24.536Z,10.27
2018-10-16T13:11:57.240Z,9.10
2018-10-16T13:14:31.337Z,8.60
2018-10-16T13:17:04.325Z,7.40
2018-10-16T13:19:37.429Z,12.93
2018-10-16T13:22:16.601Z,6.22
2018-10-16T13:24:52.569Z,11.77
2018-10-16T13:27:25.413Z,18.37
2018-10-16T13:29:59.102Z,8.60
2018-10-16T13:32:35.509Z,12.30
2018-10-16T13:35:13.627Z,10.23
2018-10-16T13:37:51.247Z,11.00
2018-10-16T13:40:32.401Z,9.90
2018-10-16T13:43:10.581Z,10.80
2018-10-16T13:45:51.303Z,16.30
2018-10-16T13:48:34.698Z,11.60
2018-10-16T13:51:07.784Z,10.27
2018-10-16T13:53:45.055Z,10.60
2018-10-16T13:56:20.817Z,10.27
2018-10-16T13:59:04.962Z,11.93
2018-10-16T14:01:54.012Z,19.70
2018-10-16T14:04:40.550Z,13.60
2018-10-16T14:07:15.264Z,9.10
2018-10-16T14:09:55.699Z,10.28
2018-10-16T14:12:30.183Z,12.93
2018-10-16T14:15:07.614Z,8.60
2018-10-16T14:17:44.083Z,14.43
2018-10-16T14:20:17.374Z,6.43
2018-10-16T14:22:50.821Z,13.60
2018-10-16T14:25:29.327Z,16.93
2018-10-16T14:28:02.973Z,7.80
2018-10-16T14:30:36.384Z,9.17
2018-10-16T14:33:12.193Z,12.50
2018-10-16T14:35:47.732Z,5.23
2018-10-16T14:38:25.092Z,8.23
2018-10-16T14:41:03.358Z,6.27
2018-10-16T14:43:38.004Z,6.20
2018-10-16T14:46:11.712Z,4.20
2018-10-16T14:48:45.685Z,13.20
2018-10-16T14:51:27.333Z,5.53
2018-10-16T14:54:01.080Z,3.80
2018-10-16T14:56:36.400Z,7.80
2018-10-16T14:59:09.274Z,5.90
2018-10-16T15:01:44.639Z,8.20
2018-10-16T15:04:26.775Z,5.53
2018-10-16T15:06:59.743Z,7.57
2018-10-16T15:09:33.517Z,5.53
2018-10-16T15:12:06.442Z,4.77
2018-10-16T15:14:39.501Z,12.13
2018-10-16T15:17:17.013Z,6.17
2018-10-16T15:19:51.100Z,4.00
2018-10-16T15:22:23.938Z,4.37
2018-10-16T15:25:04.525Z,4.47
2018-10-16T15:27:37.830Z,4.47
2018-10-16T15:30:12.898Z,5.27
2018-10-16T15:32:48.883Z,9.17
2018-10-16T15:35:22.272Z,4.73
2018-10-16T15:38:01.205Z,5.20
2018-10-16T15:40:37.417Z,4.40
2018-10-16T15:43:10.818Z,4.85
2018-10-16T15:45:44.792Z,4.27
2018-10-16T15:48:22.803Z,4.13
2018-10-16T15:50:59.528Z,4.83
2018-10-16T15:53:33.442Z,7.90
2018-10-16T15:56:07.485Z,8.50
2018-10-16T15:58:41.433Z,10.83
2018-10-16T16:01:17.819Z,4.20
2018-10-16T16:03:51.387Z,6.50
2018-10-16T16:06:26.773Z,4.67
2018-10-16T16:09:08.112Z,6.50
2018-10-16T16:11:45.152Z,5.40
2018-10-16T16:14:18.594Z,6.87
2018-10-16T16:16:51.716Z,5.58
2018-10-16T16:19:26.119Z,26.17
2018-10-16T16:22:01.661Z,6.43
2018-10-16T16:24:42.338Z,6.83
2018-10-16T16:27:19.989Z,5.57
2018-10-16T16:29:52.907Z,11.40
2018-10-16T16:32:28.396Z,7.83
2018-10-16T16:35:03.190Z,7.77
2018-10-16T16:37:37.143Z,11.63
2018-10-16T16:40:11.725Z,7.53
2018-10-16T16:42:45.835Z,6.30
2018-10-16T16:45:19.540Z,18.43
2018-10-16T16:47:57.978Z,4.30
2018-10-16T16:50:33.115Z,9.57
2018-10-16T16:53:06.555Z,11.77
2018-10-16T16:55:40.078Z,7.27
2018-10-16T16:58:15.983Z,6.17
2018-10-16T17:00:54.156Z,5.27
2018-10-16T17:03:29.522Z,3.07
2018-10-16T17:06:03.490Z,4.20
2018-10-16T17:08:37.292Z,4.73
2018-10-16T17:11:10.764Z,3.50
2018-10-16T17:13:44.277Z,4.13
2018-10-16T17:16:23.265Z,4.07
2018-10-16T17:18:57.775Z,5.20
2018-10-16T17:21:32.539Z,7.47
2018-10-16T17:24:06.990Z,6.90
2018-10-16T17:26:41.077Z,3.20
2018-10-16T17:29:14.642Z,4.57
2018-10-16T17:31:47.459Z,3.73
2018-10-16T17:34:21.793Z,4.93
2018-10-16T17:37:00.290Z,4.33
2018-10-16T17:39:34.559Z,7.60
2018-10-16T17:42:07.459Z,4.00
2018-10-16T17:44:41.919Z,3.77
2018-10-16T17:47:18.035Z,3.40
2018-10-16T17:49:52.247Z,3.23
2018-10-16T17:52:26.496Z,5.93
2018-10-16T17:55:02.150Z,4.40
2018-10-16T17:57:41.555Z,4.20
2018-10-16T18:00:17.954Z,3.10
2018-10-16T18:02:51.374Z,3.80
2018-10-16T18:05:30.065Z,4.37
2018-10-16T18:08:03.696Z,4.10
2018-10-16T18:10:47.436Z,5.33
2018-10-16T18:13:21.541Z,4.23
2018-10-16T18:15:56.133Z,6.00
2018-10-16T18:18:31.713Z,4.77
2018-10-16T18:21:13.340Z,4.53
2018-10-16T18:23:46.437Z,3.37
2018-10-16T18:26:24.001Z,5.10
2018-10-16T18:28:56.933Z,4.83
2018-10-16T18:31:30.076Z,3.77
2018-10-16T18:34:03.120Z,3.67
2018-10-16T18:36:36.897Z,4.53
2018-10-16T18:39:11.673Z,4.10
2018-10-16T18:41:48.525Z,4.77
2018-10-16T18:44:21.982Z,2.90
2018-10-16T18:46:55.703Z,4.55
2018-10-16T18:49:29.302Z,4.53
2018-10-16T18:52:03.776Z,3.20
2018-10-16T18:54:37.865Z,4.10
2018-10-16T18:57:12.633Z,4.93
2018-10-16T18:59:45.668Z,10.80
2018-10-16T19:02:19.383Z,16.60
2018-10-16T19:04:52.722Z,6.20
2018-10-16T19:07:27.177Z,4.13
2018-10-16T19:10:00.153Z,3.20
2018-10-16T19:12:33.441Z,4.70
2018-10-16T19:15:07.754Z,3.47
2018-10-16T19:17:42.295Z,3.53
2018-10-16T19:20:22.397Z,10.53
2018-10-16T19:22:56.164Z,6.33
2018-10-16T19:25:34.993Z,7.53
2018-10-16T19:28:08.195Z,3.47
2018-10-16T19:30:41.163Z,2.90
2018-10-16T19:33:18.230Z,2.60
2018-10-16T19:35:56.962Z,4.33
2018-10-16T19:38:30.913Z,3.47
2018-10-16T19:41:03.962Z,3.00
2018-10-16T19:43:37.356Z,2.27
2018-10-16T19:46:11.787Z,7.20
2018-10-16T19:48:45.797Z,7.63
2018-10-16T19:51:20.145Z,3.87
2018-10-16T19:53:55.186Z,3.70
2018-10-16T19:56:29.352Z,3.80
2018-10-16T19:59:02.874Z,3.70
2018-10-16T20:01:36.372Z,3.97
2018-10-16T20:04:09.957Z,4.93
2018-10-16T20:06:42.925Z,5.87
2018-10-16T20:09:15.861Z,5.10
2018-10-16T20:11:50.723Z,2.50
2018-10-16T20:14:27.857Z,16.93
2018-10-16T20:17:03.182Z,4.40
2018-10-16T20:19:36.761Z,4.87
2018-10-16T20:22:11.513Z,3.43
2018-10-16T20:24:44.511Z,6.00
2018-10-16T20:27:23.692Z,6.33
2018-10-16T20:29:57.069Z,7.70
2018-10-16T20:32:31.324Z,8.00
2018-10-16T20:35:05.306Z,3.20
2018-10-16T20:37:43.845Z,3.60
2018-10-16T20:40:17.997Z,4.40
2018-10-16T20:42:52.053Z,11.57
2018-10-16T20:45:26.281Z,12.50
2018-10-16T20:48:02.317Z,12.93
2018-10-16T20:50:36.403Z,12.87
2018-10-16T20:53:10.483Z,13.77
2018-10-16T20:55:48.309Z,15.48
2018-10-16T20:58:23.994Z,12.67
2018-10-16T21:00:58.852Z,11.87
2018-10-16T21:03:33.634Z,12.47
2018-10-16T21:06:07.795Z,10.33
2018-10-16T21:08:47.666Z,11.40
2018-10-16T21:11:27.901Z,8.70
2018-10-16T21:14:01.315Z,9.00
2018-10-16T21:16:35.973Z,8.73
2018-10-16T21:19:09.853Z,8.60
2018-10-16T21:21:42.844Z,8.23
2018-10-16T21:24:16.977Z,9.97
2018-10-16T21:27:13.621Z,9.20
2018-10-16T21:29:46.937Z,12.33
2018-10-16T21:32:19.803Z,22.90
2018-10-16T21:34:53.036Z,25.23
2018-10-16T21:37:26.417Z,22.17
2018-10-16T21:40:01.594Z,20.07
2018-10-16T21:42:34.580Z,19.10
2018-10-16T21:45:12.433Z,18.83
2018-10-16T21:47:48.618Z,20.20
2018-10-16T21:50:25.070Z,18.70
2018-10-16T21:53:02.125Z,19.10
2018-10-16T21:58:32.417Z,13.50
2018-10-16T22:01:11.112Z,12.13
2018-10-16T22:03:48.216Z,11.07
2018-10-16T22:06:30.823Z,13.68
2018-10-16T22:09:04.156Z,13.87
2018-10-16T22:11:39.184Z,14.17
2018-10-16T22:14:13.010Z,14.00
2018-10-16T22:16:47.220Z,14.90
2018-10-16T22:19:21.254Z,14.77
2018-10-16T22:21:54.294Z,15.50
2018-10-16T22:24:31.568Z,16.10
2018-10-16T22:27:05.705Z,15.00
2018-10-16T22:29:38.987Z,16.12
2018-10-16T22:32:12.287Z,16.50
2018-10-16T22:34:45.183Z,16.63
2018-10-16T22:37:19.194Z,16.57
2018-10-16T22:39:54.338Z,16.47
2018-10-16T22:42:28.946Z,17.40
2018-10-16T22:45:06.380Z,18.73
2018-10-16T22:47:47.703Z,17.33
2018-10-16T22:50:22.870Z,18.30
2018-10-16T22:52:58.169Z,15.07
2018-10-16T22:55:32.322Z,14.43
2018-10-16T22:58:08.743Z,15.30
2018-10-16T23:00:47.916Z,15.53
2018-10-16T23:03:23.778Z,20.40
2018-10-16T23:08:42.547Z,16.77
2018-10-16T23:11:22.373Z,18.70
2018-10-16T23:13:58.554Z,19.00
2018-10-16T23:16:34.900Z,18.43
2018-10-16T23:19:08.304Z,19.03
2018-10-16T23:21:43.361Z,19.50
2018-10-16T23:24:20.627Z,19.47
2018-10-16T23:26:55.846Z,24.47
2018-10-16T23:29:30.013Z,21.40
2018-10-16T23:32:09.752Z,22.33
2018-10-16T23:34:42.839Z,23.13
2018-10-16T23:37:21.943Z,20.10
2018-10-16T23:39:59.286Z,21.07
2018-10-16T23:42:32.442Z,22.67
2018-10-16T23:45:07.130Z,24.83
2018-10-16T23:47:40.218Z,23.87
2018-10-16T23:50:14.703Z,24.23
2018-10-16T23:52:48.727Z,21.63
2018-10-16T23:55:22.567Z,20.73
2018-10-16T23:57:59.144Z,22.27
